Aérodrome :
LOGIN :

S'inscrire | Disclaimer

   EN    FR    IT 

 










Légende :    VFR   VFR Marginal   IFR   IFR Intensif   IFR Très Intensif
Visi : 
Plafond : 
>= 8 km
>= 3000ft
5 à 8 km
1000 à 3000 ft
1500m à 5 km
500 à 1000 ft
800 à 1500m
200 à 500 ft
< 800m
< 200 ft
Symboles :   Orages  Brouillard  Fortes neiges  Fortes précipitations  Vent > 20 kt
SIGMETs :   Divers  Orages  Givrage  Turbulence  Onde Orograph.  Cendres Volcan.






- Altitude de l'aérodrome : 284 ft


EGUW - RAF Wattisham

DERNIER METAR :
  • 251520Z 24016KT 9999 VCSH FEW020CB FEW022TCU BKN060 06/01 Q0995 TEMPO 6000 SHRA BKN020CB RMK BLU TEMPO WHT

METARs EXPIRÉS :
  • 251450Z 25014KT 9999 VCSH FEW020TCU BKN060 07/01 Q0996 TEMPO 6000 SHRA BKN022TCU RMK BLU TEMPO WHT
  • 251422Z 26011KT 9999 FEW020TCU SCT060 BKN250 07/02 Q0996 TEMPO 6000 SHRA BKN022TCU RMK BLU TEMPO WHT
  • 251350Z 26013KT 9999 SCT028 BKN090 06/01 Q0997 BLU TEMPO 6000 SHRA BKN022TCU RMK BLU TEMPO WHT
  • 251323Z 27016KT 9999 FEW032 SCT050 BKN250 07/01 Q0997 NOSIG RMK BLU BLU

TAF TAF EGUW
Valide du 25 à 15h jusqu'au 26 à 00h UTC


251330Z 2515/2524 25010KT 9999 FEW020
PROB30
TEMPO 2515/2520 6000 SHRA BKN022CB
PROB30
TEMPO 2520/2524 BKN010



MET'MAP, la Météo Aéronautique d'un coup d'oeil ! - Copyright ORBIFLY Décembre 2007 - Disclaimer

ORBIFLY MET'MAP TEAM :

Programmation & Développement : Alexandra Zaïnal
Sur une idée originale de : Baudouin d'Aumeries
Assistance à la programmation : Marc-Olivier Méhu
Soutien technique & logistique : Manuel Goepfert

Contact : metmap@orbifly.com




SOURCES & CREDITS :

   NOAA